createdAt,value
2022-12-25T00:01:46.433Z,88.57
2022-12-25T00:04:12.907Z,88.27
2022-12-25T00:06:39.418Z,89.01
2022-12-25T00:09:05.785Z,88.99
2022-12-25T00:11:32.247Z,89.25
2022-12-25T00:13:58.677Z,88.73
2022-12-25T00:16:26.623Z,88.56
2022-12-25T00:18:54.030Z,87.76
2022-12-25T00:21:21.808Z,87.97
2022-12-25T00:23:53.000Z,87.61
2022-12-25T00:26:19.526Z,87.71
2022-12-25T00:28:45.978Z,87.55
2022-12-25T00:31:15.598Z,87.45
2022-12-25T00:33:43.701Z,87.83
2022-12-25T00:36:11.644Z,87.32
2022-12-25T00:38:39.715Z,87.00
2022-12-25T00:41:08.872Z,86.55
2022-12-25T00:43:35.964Z,86.74
2022-12-25T00:46:05.445Z,86.82
2022-12-25T00:48:32.658Z,86.19
2022-12-25T00:51:06.022Z,86.40
2022-12-25T00:53:32.472Z,86.85
2022-12-25T00:56:03.055Z,86.31
2022-12-25T00:58:31.826Z,86.35
2022-12-25T01:00:58.601Z,86.81
2022-12-25T01:03:26.062Z,86.70
2022-12-25T01:05:58.306Z,87.09
2022-12-25T01:08:25.893Z,87.77
2022-12-25T01:11:07.853Z,87.60
2022-12-25T01:13:37.352Z,87.41
2022-12-25T01:16:11.137Z,86.71
2022-12-25T01:18:38.616Z,87.44
2022-12-25T01:21:12.664Z,86.66
2022-12-25T01:23:39.407Z,86.38
2022-12-25T01:26:07.271Z,86.10
2022-12-25T01:28:34.500Z,86.20
2022-12-25T01:31:01.438Z,85.89
2022-12-25T01:33:28.045Z,85.62
2022-12-25T01:35:54.523Z,85.88
2022-12-25T01:38:21.261Z,85.36
2022-12-25T01:40:47.667Z,85.63
2022-12-25T01:43:30.104Z,86.08
2022-12-25T01:45:57.812Z,86.21
2022-12-25T01:48:34.033Z,86.97
2022-12-25T01:51:18.712Z,87.47
2022-12-25T01:53:45.133Z,87.13
2022-12-25T01:56:12.009Z,87.87
2022-12-25T01:58:38.420Z,87.57
2022-12-25T02:01:05.932Z,87.84
2022-12-25T02:03:32.539Z,87.58
2022-12-25T02:06:00.446Z,87.41
2022-12-25T02:08:27.309Z,87.53
2022-12-25T02:10:53.748Z,87.85
2022-12-25T02:13:21.086Z,87.68
2022-12-25T02:16:09.261Z,87.73
2022-12-25T02:19:04.373Z,87.62
2022-12-25T02:21:58.517Z,88.02
2022-12-25T02:24:43.645Z,87.45
2022-12-25T02:27:22.102Z,87.75
2022-12-25T02:29:53.250Z,87.43
2022-12-25T02:32:28.204Z,87.38
2022-12-25T02:35:12.971Z,87.60
2022-12-25T02:37:52.150Z,88.21
2022-12-25T02:40:25.036Z,88.17
2022-12-25T02:43:25.420Z,88.17
2022-12-25T02:46:13.511Z,88.73
2022-12-25T02:49:06.261Z,89.81
2022-12-25T02:51:55.329Z,89.95
2022-12-25T02:54:47.231Z,90.51
2022-12-25T02:57:34.360Z,90.18
2022-12-25T03:00:21.286Z,89.73
2022-12-25T03:03:08.771Z,89.60
2022-12-25T03:05:57.311Z,88.47
2022-12-25T03:08:28.996Z,88.05
2022-12-25T03:11:31.710Z,87.81
2022-12-25T03:14:21.693Z,87.00
2022-12-25T03:16:52.958Z,86.40
2022-12-25T03:19:47.392Z,86.39
2022-12-25T03:22:40.559Z,86.85
2022-12-25T03:25:26.440Z,86.53
2022-12-25T03:27:55.525Z,86.84
2022-12-25T03:30:47.755Z,87.41
2022-12-25T03:34:10.407Z,87.20
2022-12-25T03:37:13.514Z,87.92
2022-12-25T03:39:53.747Z,87.46
2022-12-25T03:42:46.832Z,87.70
2022-12-25T03:45:44.766Z,88.08
2022-12-25T03:48:13.106Z,88.23
2022-12-25T03:51:10.495Z,88.84
2022-12-25T03:54:04.896Z,88.93
2022-12-25T03:56:51.772Z,89.50
2022-12-25T03:59:39.449Z,89.71
2022-12-25T04:02:35.641Z,89.40
2022-12-25T04:05:21.282Z,89.29
2022-12-25T04:08:06.076Z,88.59
2022-12-25T04:10:50.903Z,89.12
2022-12-25T04:13:35.612Z,89.30
2022-12-25T04:16:20.620Z,88.40
2022-12-25T04:19:05.688Z,88.32
2022-12-25T04:21:50.642Z,88.10
2022-12-25T04:24:35.453Z,88.91
2022-12-25T04:27:20.458Z,88.72
2022-12-25T04:30:05.483Z,88.54
2022-12-25T04:32:50.340Z,87.77
2022-12-25T04:35:35.300Z,88.08
2022-12-25T04:38:01.720Z,87.60
2022-12-25T04:40:28.185Z,88.04
2022-12-25T04:42:54.593Z,87.69
2022-12-25T04:45:21.077Z,87.22
2022-12-25T04:47:47.498Z,86.52
2022-12-25T04:50:13.939Z,86.98
2022-12-25T04:52:41.154Z,87.16
2022-12-25T04:55:09.450Z,88.03
2022-12-25T04:57:35.924Z,87.93
2022-12-25T05:00:02.617Z,87.88
2022-12-25T05:02:29.214Z,88.53
2022-12-25T05:04:55.775Z,87.69
2022-12-25T05:07:22.191Z,88.44
2022-12-25T05:09:48.613Z,88.81
2022-12-25T05:12:15.045Z,89.64
2022-12-25T05:14:41.501Z,89.92
2022-12-25T05:17:08.115Z,89.64
2022-12-25T05:19:35.119Z,88.78
2022-12-25T05:22:01.639Z,88.34
2022-12-25T05:24:28.543Z,89.48
2022-12-25T05:26:55.045Z,89.35
2022-12-25T05:29:21.711Z,89.36
2022-12-25T05:31:48.211Z,90.42
2022-12-25T05:34:14.680Z,90.91
2022-12-25T05:36:41.106Z,91.91
2022-12-25T05:39:07.584Z,91.54
2022-12-25T05:41:34.626Z,91.45
2022-12-25T05:44:01.995Z,91.88
2022-12-25T05:46:28.447Z,91.75
2022-12-25T05:48:55.173Z,90.82
2022-12-25T05:51:21.669Z,90.66
2022-12-25T05:53:48.243Z,90.34
2022-12-25T05:56:14.748Z,90.13
2022-12-25T05:58:41.621Z,89.61
2022-12-25T06:01:14.041Z,89.13
2022-12-25T06:03:40.601Z,88.21
2022-12-25T06:06:07.316Z,87.35
2022-12-25T06:08:34.668Z,87.69
2022-12-25T06:11:05.855Z,87.01
2022-12-25T06:13:33.813Z,86.62
2022-12-25T06:16:04.118Z,87.07
2022-12-25T06:18:30.542Z,87.29
2022-12-25T06:20:56.945Z,87.30
2022-12-25T06:23:24.166Z,87.58
2022-12-25T06:25:50.637Z,86.88
2022-12-25T06:28:17.034Z,87.61
2022-12-25T06:30:43.516Z,88.39
2022-12-25T06:33:09.910Z,88.81
2022-12-25T06:35:39.092Z,89.26
2022-12-25T06:38:06.037Z,89.59
2022-12-25T06:40:32.602Z,89.30
2022-12-25T06:42:59.010Z,89.04
2022-12-25T06:45:25.511Z,88.77
2022-12-25T06:47:51.928Z,88.52
2022-12-25T06:50:18.475Z,89.08
2022-12-25T06:52:44.916Z,89.06
2022-12-25T06:55:11.345Z,88.79
2022-12-25T06:57:37.789Z,88.93
2022-12-25T07:00:05.070Z,88.86
2022-12-25T07:02:33.305Z,89.33
2022-12-25T07:05:00.571Z,89.50
2022-12-25T07:07:26.967Z,90.47
2022-12-25T07:09:53.434Z,90.56
2022-12-25T07:12:23.308Z,91.16
2022-12-25T07:14:50.493Z,91.69
2022-12-25T07:17:17.785Z,92.16
2022-12-25T07:19:45.348Z,92.78
2022-12-25T07:22:12.898Z,93.54
2022-12-25T07:24:39.356Z,93.25
2022-12-25T07:27:06.007Z,94.01
2022-12-25T07:29:32.466Z,94.09
2022-12-25T07:31:58.921Z,94.55
2022-12-25T07:34:25.667Z,94.12
2022-12-25T07:36:54.480Z,94.12
2022-12-25T07:39:20.882Z,93.87
2022-12-25T07:41:47.318Z,94.16
2022-12-25T07:44:14.542Z,93.94
2022-12-25T07:46:41.073Z,94.91
2022-12-25T07:49:07.543Z,94.36
2022-12-25T07:51:34.028Z,94.57
2022-12-25T07:54:00.424Z,94.07
2022-12-25T07:56:27.260Z,93.84
2022-12-25T07:58:53.782Z,94.17
2022-12-25T08:01:23.035Z,94.11
2022-12-25T08:03:58.112Z,94.83
2022-12-25T08:06:29.828Z,95.68
2022-12-25T08:08:57.832Z,95.93
2022-12-25T08:11:24.280Z,96.42
2022-12-25T08:13:50.731Z,97.60
2022-12-25T08:16:17.201Z,97.59
2022-12-25T08:18:44.305Z,96.57
2022-12-25T08:21:13.509Z,96.70
2022-12-25T08:23:42.524Z,96.72
2022-12-25T08:26:13.142Z,96.73
2022-12-25T08:28:39.984Z,97.20
2022-12-25T08:31:27.731Z,98.14
2022-12-25T08:33:57.278Z,97.88
2022-12-25T08:36:24.315Z,97.90
2022-12-25T08:38:51.261Z,98.04
2022-12-25T08:41:19.132Z,98.66
2022-12-25T08:43:45.662Z,98.91
2022-12-25T08:46:12.569Z,98.13
2022-12-25T08:48:42.499Z,97.53
2022-12-25T08:51:14.449Z,97.45
2022-12-25T08:53:43.160Z,97.37
2022-12-25T08:56:09.926Z,96.85
2022-12-25T08:58:36.694Z,97.58
2022-12-25T09:01:04.018Z,97.01
2022-12-25T09:03:33.476Z,96.81
2022-12-25T09:06:08.235Z,96.76
2022-12-25T09:08:35.603Z,96.30
2022-12-25T09:11:04.211Z,95.60
2022-12-25T09:13:31.018Z,95.11
2022-12-25T09:15:57.527Z,95.53
2022-12-25T09:18:24.441Z,94.83
2022-12-25T09:21:01.275Z,94.89
2022-12-25T09:23:28.401Z,94.58
2022-12-25T09:25:55.101Z,94.66
2022-12-25T09:28:21.953Z,94.02
2022-12-25T09:30:52.319Z,93.61
2022-12-25T09:33:19.777Z,93.57
2022-12-25T09:36:07.321Z,93.33
2022-12-25T09:38:34.616Z,92.73
2022-12-25T09:41:30.443Z,91.99
2022-12-25T09:44:15.404Z,91.87
2022-12-25T09:46:47.281Z,91.69
2022-12-25T09:49:21.431Z,91.38
2022-12-25T09:51:53.211Z,90.90
2022-12-25T09:54:24.972Z,90.45
2022-12-25T09:56:52.187Z,90.48
2022-12-25T09:59:25.070Z,89.93
2022-12-25T10:02:28.785Z,89.29
2022-12-25T10:05:17.475Z,89.07
2022-12-25T10:08:05.083Z,89.55
2022-12-25T10:10:53.972Z,90.13
2022-12-25T10:13:58.698Z,86.39
2022-12-25T10:16:34.640Z,84.18
2022-12-25T10:19:15.920Z,82.80
2022-12-25T10:21:42.500Z,82.49
2022-12-25T10:24:35.782Z,82.38
2022-12-25T10:27:14.692Z,82.30
2022-12-25T10:29:43.538Z,82.65
2022-12-25T10:32:10.301Z,82.69
2022-12-25T10:34:40.633Z,82.75
2022-12-25T10:37:10.507Z,82.62
2022-12-25T10:39:40.975Z,82.85
2022-12-25T10:42:26.735Z,83.00
2022-12-25T10:45:04.052Z,82.53
2022-12-25T10:47:42.581Z,82.80
2022-12-25T10:50:20.528Z,82.79
2022-12-25T10:53:02.111Z,82.62
2022-12-25T10:55:29.826Z,82.05
2022-12-25T10:57:57.969Z,81.73
2022-12-25T11:00:27.458Z,81.76
2022-12-25T11:02:54.338Z,81.66
2022-12-25T11:05:29.908Z,81.48
2022-12-25T11:07:59.387Z,81.42
2022-12-25T11:10:34.155Z,81.13
2022-12-25T11:13:02.458Z,80.89
2022-12-25T11:15:31.556Z,80.93
2022-12-25T11:17:58.137Z,80.92
2022-12-25T11:20:24.582Z,80.33
2022-12-25T11:22:51.459Z,80.38
2022-12-25T11:25:24.044Z,80.46
2022-12-25T11:28:05.038Z,79.96
2022-12-25T11:30:35.033Z,79.75
2022-12-25T11:33:07.063Z,79.53
2022-12-25T11:35:47.577Z,79.61
2022-12-25T11:38:14.030Z,79.64
2022-12-25T11:40:52.624Z,79.35
2022-12-25T11:43:36.505Z,79.20
2022-12-25T11:46:21.878Z,79.32
2022-12-25T11:49:01.428Z,78.81
2022-12-25T11:51:35.564Z,79.23
2022-12-25T11:54:10.485Z,78.17
2022-12-25T11:56:37.718Z,78.42
2022-12-25T11:59:18.068Z,77.13
2022-12-25T12:01:52.027Z,77.13
2022-12-25T12:04:29.990Z,77.91
2022-12-25T12:07:24.197Z,77.30
2022-12-25T12:09:58.780Z,76.65
2022-12-25T12:12:53.797Z,76.51
2022-12-25T12:15:29.360Z,75.70
2022-12-25T12:18:07.228Z,76.08
2022-12-25T12:20:35.731Z,75.74
2022-12-25T12:23:10.722Z,74.66
2022-12-25T12:25:42.272Z,75.47
2022-12-25T12:28:20.603Z,76.00
2022-12-25T12:31:05.168Z,75.22
2022-12-25T12:33:48.755Z,74.55
2022-12-25T12:36:15.984Z,73.86
2022-12-25T12:38:44.121Z,74.03
2022-12-25T12:41:12.652Z,73.64
2022-12-25T12:43:47.082Z,73.52
2022-12-25T12:46:31.483Z,72.37
2022-12-25T12:49:22.098Z,70.43
2022-12-25T12:51:49.161Z,70.81
2022-12-25T12:54:25.760Z,70.19
2022-12-25T12:56:59.830Z,69.92
2022-12-25T12:59:32.620Z,69.83
2022-12-25T13:02:17.696Z,68.26
2022-12-25T13:04:52.621Z,68.64
2022-12-25T13:07:43.871Z,67.99
2022-12-25T13:10:33.449Z,68.61
2022-12-25T13:13:04.800Z,68.16
2022-12-25T13:15:33.948Z,67.64
2022-12-25T13:18:04.193Z,67.51
2022-12-25T13:20:44.973Z,67.85
2022-12-25T13:23:35.876Z,67.68
2022-12-25T13:26:11.803Z,67.80
2022-12-25T13:28:38.593Z,67.46
2022-12-25T13:31:26.582Z,67.94
2022-12-25T13:34:11.788Z,67.84
2022-12-25T13:36:40.096Z,68.46
2022-12-25T13:39:16.003Z,67.86
2022-12-25T13:42:06.817Z,67.86
2022-12-25T13:44:44.666Z,67.86
2022-12-25T13:47:19.143Z,68.07
2022-12-25T13:49:46.809Z,68.34
2022-12-25T13:52:21.291Z,68.74
2022-12-25T13:55:01.520Z,68.74
2022-12-25T13:57:33.026Z,68.90
2022-12-25T14:00:00.418Z,69.04
2022-12-25T14:02:37.720Z,68.22
2022-12-25T14:05:24.567Z,68.56
2022-12-25T14:07:55.582Z,69.00
2022-12-25T14:10:24.432Z,68.82
2022-12-25T14:12:53.482Z,69.20
2022-12-25T14:15:22.979Z,68.56
2022-12-25T14:17:52.574Z,68.51
2022-12-25T14:20:26.940Z,68.48
2022-12-25T14:22:56.270Z,68.71
2022-12-25T14:25:33.572Z,68.79
2022-12-25T14:28:06.018Z,68.64
2022-12-25T14:30:32.548Z,69.04
2022-12-25T14:32:59.473Z,69.03
2022-12-25T14:35:26.038Z,69.41
2022-12-25T14:38:00.035Z,69.04
2022-12-25T14:40:30.833Z,69.49
2022-12-25T14:43:02.865Z,69.06
2022-12-25T14:45:32.711Z,69.79
2022-12-25T14:48:21.241Z,69.59
2022-12-25T14:51:08.240Z,69.74
2022-12-25T14:53:41.083Z,70.20
2022-12-25T14:56:09.492Z,70.02
2022-12-25T14:58:41.965Z,70.79
2022-12-25T15:01:20.812Z,70.76
2022-12-25T15:03:49.074Z,70.87
2022-12-25T15:06:21.749Z,71.08
2022-12-25T15:09:00.317Z,71.14
2022-12-25T15:11:27.951Z,71.22
2022-12-25T15:13:54.411Z,71.28
2022-12-25T15:16:37.746Z,71.92
2022-12-25T15:19:07.242Z,71.64
2022-12-25T15:21:36.167Z,71.83
2022-12-25T15:24:03.493Z,72.15
2022-12-25T15:26:31.913Z,72.51
2022-12-25T15:28:58.720Z,72.49
2022-12-25T15:31:30.917Z,72.32
2022-12-25T15:34:00.114Z,72.42
2022-12-25T15:36:27.189Z,72.23
2022-12-25T15:38:54.203Z,72.78
2022-12-25T15:41:44.002Z,72.54
2022-12-25T15:44:11.448Z,72.65
2022-12-25T15:46:38.079Z,72.99
2022-12-25T15:49:04.549Z,72.86
2022-12-25T15:51:30.980Z,72.94
2022-12-25T15:53:58.884Z,73.07
2022-12-25T15:56:26.464Z,73.29
2022-12-25T15:58:52.881Z,73.68
2022-12-25T16:01:20.616Z,73.29
2022-12-25T16:03:47.414Z,73.57
2022-12-25T16:06:17.079Z,73.89
2022-12-25T16:08:44.569Z,73.46
2022-12-25T16:11:11.681Z,74.17
2022-12-25T16:13:38.193Z,74.27
2022-12-25T16:16:05.253Z,74.60
2022-12-25T16:18:31.706Z,74.86
2022-12-25T16:20:59.720Z,74.96
2022-12-25T16:23:26.197Z,75.53
2022-12-25T16:25:52.609Z,75.59
2022-12-25T16:28:19.077Z,75.52
2022-12-25T16:30:45.572Z,75.62
2022-12-25T16:33:12.115Z,75.90
2022-12-25T16:35:38.787Z,75.81
2022-12-25T16:38:05.419Z,75.95
2022-12-25T16:40:32.048Z,76.13
2022-12-25T16:42:58.561Z,76.23
2022-12-25T16:45:25.044Z,76.46
2022-12-25T16:47:51.497Z,76.30
2022-12-25T16:50:17.973Z,75.84
2022-12-25T16:52:44.397Z,75.60
2022-12-25T16:55:11.187Z,75.53
2022-12-25T16:57:37.698Z,75.61
2022-12-25T17:00:05.001Z,75.38
2022-12-25T17:02:31.603Z,75.37
2022-12-25T17:04:58.124Z,75.18
2022-12-25T17:07:24.561Z,75.06
2022-12-25T17:09:51.030Z,74.90
2022-12-25T17:12:17.547Z,75.22
2022-12-25T17:14:44.190Z,75.24
2022-12-25T17:17:10.635Z,75.04
2022-12-25T17:19:37.106Z,74.98
2022-12-25T17:22:03.603Z,75.15
2022-12-25T17:24:30.092Z,74.82
2022-12-25T17:26:56.518Z,74.81
2022-12-25T17:29:24.621Z,74.57
2022-12-25T17:31:51.418Z,75.23
2022-12-25T17:34:17.987Z,75.05
2022-12-25T17:36:44.426Z,74.88
2022-12-25T17:39:11.149Z,74.90
2022-12-25T17:41:37.768Z,75.05
2022-12-25T17:44:04.418Z,75.04
2022-12-25T17:46:31.222Z,75.22
2022-12-25T17:48:59.381Z,75.13
2022-12-25T17:51:27.360Z,74.89
2022-12-25T17:53:56.476Z,75.62
2022-12-25T17:56:24.024Z,75.51
2022-12-25T17:58:55.834Z,75.18
2022-12-25T18:01:23.805Z,75.21
2022-12-25T18:03:50.781Z,75.30
2022-12-25T18:06:20.221Z,75.27
2022-12-25T18:08:47.416Z,75.10
2022-12-25T18:11:18.168Z,75.12
2022-12-25T18:13:48.246Z,75.21
2022-12-25T18:16:15.255Z,75.21
2022-12-25T18:18:49.545Z,75.04
2022-12-25T18:21:18.156Z,75.26
2022-12-25T18:23:46.157Z,75.29
2022-12-25T18:26:12.869Z,74.91
2022-12-25T18:28:39.498Z,75.02
2022-12-25T18:31:26.654Z,74.81
2022-12-25T18:33:53.786Z,75.02
2022-12-25T18:36:23.410Z,75.08
2022-12-25T18:38:50.913Z,75.06
2022-12-25T18:41:18.890Z,75.08
2022-12-25T18:43:52.533Z,74.91
2022-12-25T18:46:26.227Z,74.98
2022-12-25T18:48:56.388Z,76.39
2022-12-25T18:51:23.267Z,76.19
2022-12-25T18:53:49.698Z,74.98
2022-12-25T18:56:17.745Z,75.07
2022-12-25T18:58:45.119Z,74.55
2022-12-25T19:01:20.756Z,74.72
2022-12-25T19:03:48.937Z,75.40
2022-12-25T19:06:25.175Z,74.00
2022-12-25T19:08:52.594Z,73.31
2022-12-25T19:11:19.798Z,73.88
2022-12-25T19:13:46.737Z,73.58
2022-12-25T19:16:13.934Z,73.84
2022-12-25T19:18:40.486Z,73.92
2022-12-25T19:21:08.935Z,73.84
2022-12-25T19:23:35.650Z,73.40
2022-12-25T19:26:04.624Z,73.58
2022-12-25T19:28:31.051Z,73.96
2022-12-25T19:30:59.659Z,73.80
2022-12-25T19:33:26.313Z,73.67
2022-12-25T19:35:52.728Z,73.63
2022-12-25T19:38:20.070Z,73.87
2022-12-25T19:41:00.239Z,73.72
2022-12-25T19:43:32.781Z,74.10
2022-12-25T19:46:00.262Z,74.07
2022-12-25T19:48:27.559Z,74.23
2022-12-25T19:50:54.513Z,74.42
2022-12-25T19:53:23.612Z,74.30
2022-12-25T19:55:52.396Z,74.44
2022-12-25T19:58:20.339Z,74.39
2022-12-25T20:01:00.584Z,74.32
2022-12-25T20:03:27.629Z,74.28
2022-12-25T20:05:54.140Z,74.33
2022-12-25T20:08:20.552Z,74.34
2022-12-25T20:10:47.039Z,74.15
2022-12-25T20:13:13.708Z,74.02
2022-12-25T20:15:40.318Z,74.20
2022-12-25T20:18:06.751Z,74.32
2022-12-25T20:20:33.236Z,74.09
2022-12-25T20:22:59.649Z,74.08
2022-12-25T20:25:26.053Z,74.56
2022-12-25T20:27:53.242Z,74.37
2022-12-25T20:30:19.876Z,74.56
2022-12-25T20:32:50.365Z,74.51
2022-12-25T20:35:17.350Z,74.72
2022-12-25T20:37:43.813Z,74.76
2022-12-25T20:40:11.384Z,74.76
2022-12-25T20:42:37.830Z,74.95
2022-12-25T20:45:06.777Z,74.92
2022-12-25T20:47:34.150Z,74.94
2022-12-25T20:50:00.597Z,74.96
2022-12-25T20:52:26.997Z,74.97
2022-12-25T20:54:53.705Z,74.80
2022-12-25T20:57:20.117Z,74.80
2022-12-25T20:59:46.908Z,75.14
2022-12-25T21:02:34.280Z,75.37
2022-12-25T21:05:00.180Z,75.30
2022-12-25T21:07:26.601Z,75.56
2022-12-25T21:09:53.056Z,75.45
2022-12-25T21:12:19.854Z,75.48
2022-12-25T21:14:46.245Z,75.69
2022-12-25T21:17:12.756Z,75.61
2022-12-25T21:19:39.285Z,75.79
2022-12-25T21:22:05.680Z,75.51
2022-12-25T21:24:32.115Z,75.55
2022-12-25T21:26:58.495Z,75.79
2022-12-25T21:29:25.020Z,75.80
2022-12-25T21:32:12.688Z,75.66
2022-12-25T21:34:39.713Z,75.43
2022-12-25T21:37:06.105Z,75.58
2022-12-25T21:39:32.704Z,75.64
2022-12-25T21:41:59.472Z,75.18
2022-12-25T21:44:25.891Z,75.37
2022-12-25T21:46:53.050Z,75.46
2022-12-25T21:49:39.582Z,75.34
2022-12-25T21:52:08.924Z,75.46
2022-12-25T21:54:35.612Z,75.57
2022-12-25T21:57:02.014Z,75.50
2022-12-25T21:59:28.675Z,75.97
2022-12-25T22:01:55.268Z,75.64
2022-12-25T22:04:23.015Z,75.66
2022-12-25T22:07:08.832Z,75.94
2022-12-25T22:09:35.451Z,76.08
2022-12-25T22:12:21.131Z,75.76
2022-12-25T22:14:54.092Z,75.88
2022-12-25T22:17:46.151Z,75.63
2022-12-25T22:20:25.614Z,75.52
2022-12-25T22:22:52.575Z,75.94
2022-12-25T22:25:19.352Z,75.64
2022-12-25T22:27:47.638Z,75.67
2022-12-25T22:30:20.218Z,75.35
2022-12-25T22:32:47.410Z,75.89
2022-12-25T22:35:15.978Z,75.95
2022-12-25T22:37:43.787Z,75.83
2022-12-25T22:40:13.609Z,75.51
2022-12-25T22:42:40.938Z,75.49
2022-12-25T22:45:08.239Z,75.36
2022-12-25T22:47:34.920Z,75.28
2022-12-25T22:50:01.657Z,75.27
2022-12-25T22:52:28.214Z,75.13
2022-12-25T22:54:54.692Z,75.21
2022-12-25T22:57:21.138Z,75.58
2022-12-25T22:59:47.654Z,75.30
2022-12-25T23:02:14.259Z,75.35
2022-12-25T23:04:40.825Z,75.45
2022-12-25T23:07:07.273Z,75.67
2022-12-25T23:09:34.183Z,75.26
2022-12-25T23:12:00.774Z,75.42
2022-12-25T23:14:39.364Z,75.34
2022-12-25T23:17:29.079Z,75.21
2022-12-25T23:20:15.835Z,75.32
2022-12-25T23:23:01.184Z,75.13
2022-12-25T23:25:48.074Z,75.23
2022-12-25T23:28:14.540Z,74.93
2022-12-25T23:30:40.960Z,74.99
2022-12-25T23:33:07.384Z,74.96
2022-12-25T23:35:33.844Z,75.11
2022-12-25T23:38:00.866Z,75.04
2022-12-25T23:40:27.276Z,75.03
2022-12-25T23:42:53.680Z,75.00
2022-12-25T23:45:20.128Z,75.20
2022-12-25T23:47:46.550Z,74.83
2022-12-25T23:50:13.025Z,74.84
2022-12-25T23:52:39.750Z,74.73
2022-12-25T23:55:06.922Z,74.94
2022-12-25T23:57:33.597Z,74.62
